Time;durP1;ratioP1;P1;durP2;ratioP2;P2;SDS_P1;SDS_P2;PMS_P1;PMS_P2;Temp;Humidity;BMP_temperature;BMP_pressure;BME280_temperature;BME280_humidity;BME280_pressure;Samples;Min_cycle;Max_cycle;Signal;HPM_P1;HPM_P2
2022/02/15 00:01:41;;;;;;;1.00;0.20;;;7.10;99.90;;;;;;5045363;28;20028;-79
2022/02/15 00:04:08;;;;;;;0.68;0.43;;;7.10;99.90;;;;;;5048252;28;20574;-79
2022/02/15 00:06:34;;;;;;;0.30;0.20;;;7.00;99.90;;;;;;5045825;28;20033;-79
2022/02/15 00:08:59;;;;;;;0.30;0.30;;;7.00;99.90;;;;;;5045400;28;20055;-79
2022/02/15 00:11:25;;;;;;;0.73;0.50;;;7.00;99.90;;;;;;5048253;28;20155;-75
2022/02/15 00:13:51;;;;;;;0.60;0.40;;;7.00;99.90;;;;;;5048585;28;20021;-80
2022/02/15 00:16:16;;;;;;;1.05;0.60;;;6.90;99.90;;;;;;5049971;28;20458;-79
2022/02/15 00:18:43;;;;;;;0.40;0.40;;;7.00;99.90;;;;;;5052205;28;20450;-80
2022/02/15 00:21:08;;;;;;;0.77;0.50;;;6.90;99.90;;;;;;5052722;28;20029;-79
2022/02/15 00:23:34;;;;;;;0.60;0.40;;;6.90;99.90;;;;;;5052072;28;20032;-80
2022/02/15 00:26:00;;;;;;;1.42;0.82;;;6.90;99.90;;;;;;5051143;28;20037;-80
2022/02/15 00:28:26;;;;;;;1.52;0.70;;;6.80;99.90;;;;;;5052783;28;20025;-75
2022/02/15 00:30:52;;;;;;;1.15;0.77;;;6.80;99.90;;;;;;5051352;28;20029;-80
2022/02/15 00:33:18;;;;;;;1.73;0.80;;;6.70;99.90;;;;;;5051638;28;20779;-79
2022/02/15 00:35:44;;;;;;;0.40;0.40;;;6.70;99.90;;;;;;5041122;28;20413;-78
2022/02/15 00:38:10;;;;;;;0.80;0.70;;;6.70;99.90;;;;;;5033474;28;20021;-78
2022/02/15 00:40:37;;;;;;;1.20;0.80;;;6.70;99.90;;;;;;5043668;28;20462;-79
2022/02/15 00:43:04;;;;;;;0.75;0.75;;;6.70;99.90;;;;;;5054318;28;20021;-79
2022/02/15 00:45:30;;;;;;;1.70;0.88;;;6.60;99.90;;;;;;5053280;28;20033;-74
2022/02/15 00:47:55;;;;;;;2.08;0.80;;;6.60;99.90;;;;;;5054500;28;20040;-79
2022/02/15 00:50:21;;;;;;;1.15;0.85;;;6.50;99.90;;;;;;5053940;28;20087;-79
2022/02/15 00:52:47;;;;;;;1.27;0.80;;;6.50;99.90;;;;;;5053536;28;20458;-79
2022/02/15 00:55:13;;;;;;;1.92;1.00;;;6.50;99.90;;;;;;5038795;28;20029;-79
2022/02/15 00:57:42;;;;;;;1.85;1.10;;;6.50;99.90;;;;;;5033062;28;20058;-79
2022/02/15 01:00:11;;;;;;;1.95;1.05;;;6.40;99.90;;;;;;5034641;28;20394;-79
2022/02/15 01:02:36;;;;;;;1.70;1.10;;;6.40;99.90;;;;;;5034747;28;20029;-78
2022/02/15 01:05:03;;;;;;;2.25;1.05;;;6.40;99.90;;;;;;5034060;28;20033;-77
2022/02/15 01:07:29;;;;;;;2.25;1.02;;;6.50;99.90;;;;;;5033963;28;20102;-74
2022/02/15 01:09:55;;;;;;;1.88;1.00;;;6.40;99.90;;;;;;5037892;28;20105;-79
2022/02/15 01:12:20;;;;;;;1.40;0.90;;;6.50;99.90;;;;;;5034129;28;20044;-79
2022/02/15 01:14:46;;;;;;;1.67;1.05;;;6.50;99.90;;;;;;5044825;28;20029;-79
2022/02/15 01:17:12;;;;;;;1.50;1.20;;;6.50;99.90;;;;;;5053737;28;20080;-79
2022/02/15 01:19:37;;;;;;;2.03;1.25;;;6.40;99.90;;;;;;5052803;28;20104;-79
2022/02/15 01:22:04;;;;;;;4.85;0.90;;;6.40;99.90;;;;;;5053615;28;20119;-79
2022/02/15 01:24:30;;;;;;;2.35;1.50;;;6.40;99.90;;;;;;5052716;28;20102;-74
2022/02/15 01:26:56;;;;;;;2.80;1.08;;;6.40;99.90;;;;;;5053000;28;20025;-79
2022/02/15 01:29:21;;;;;;;2.20;1.08;;;6.30;99.90;;;;;;5053837;28;20033;-79
2022/02/15 01:31:47;;;;;;;3.05;1.13;;;6.30;99.90;;;;;;5053100;28;20021;-80
2022/02/15 01:34:13;;;;;;;2.00;1.05;;;6.30;99.90;;;;;;5053424;28;20367;-79
2022/02/15 01:36:38;;;;;;;1.75;1.15;;;6.20;99.90;;;;;;5052583;28;20112;-79
2022/02/15 01:39:04;;;;;;;3.45;1.13;;;6.20;99.90;;;;;;5053438;28;20040;-79
2022/02/15 01:41:30;;;;;;;2.35;1.23;;;6.20;99.90;;;;;;5051926;28;20064;-78
2022/02/15 01:43:56;;;;;;;1.30;0.90;;;6.20;99.90;;;;;;5052042;28;20059;-78
2022/02/15 01:46:21;;;;;;;1.67;1.17;;;6.10;99.90;;;;;;5053335;28;20457;-78
2022/02/15 01:48:47;;;;;;;2.38;1.30;;;6.10;99.90;;;;;;5052254;28;20477;-78
2022/02/15 01:51:17;;;;;;;1.33;1.05;;;6.00;99.90;;;;;;5050904;28;20047;-80
2022/02/15 01:53:43;;;;;;;2.10;1.10;;;6.00;99.90;;;;;;5051405;28;20037;-81
2022/02/15 01:56:11;;;;;;;4.22;1.00;;;6.00;99.90;;;;;;5052067;28;20513;-81
2022/02/15 01:58:38;;;;;;;2.67;1.10;;;6.00;99.90;;;;;;5052498;28;20049;-81
2022/02/15 02:01:04;;;;;;;1.45;0.80;;;6.00;99.90;;;;;;5052704;28;20082;-80
2022/02/15 02:03:30;;;;;;;2.63;0.80;;;6.00;99.90;;;;;;5052310;28;20044;-75
2022/02/15 02:05:55;;;;;;;2.25;0.90;;;6.00;99.90;;;;;;5053033;28;20029;-78
2022/02/15 02:08:27;;;;;;;1.73;1.00;;;6.00;99.90;;;;;;5051653;28;20454;-80
2022/02/15 02:10:54;;;;;;;2.00;0.80;;;6.00;99.90;;;;;;5051719;28;20036;-79
2022/02/15 02:13:20;;;;;;;4.05;1.60;;;6.00;99.90;;;;;;5052421;28;20025;-80
2022/02/15 02:15:47;;;;;;;2.22;1.02;;;5.90;99.90;;;;;;5052069;28;20033;-81
2022/02/15 02:18:14;;;;;;;1.77;0.85;;;5.90;99.90;;;;;;5051519;28;20112;-81
2022/02/15 02:20:41;;;;;;;4.53;1.10;;;5.90;99.90;;;;;;5051703;28;20037;-81
2022/02/15 02:23:19;;;;;;;2.75;1.00;;;5.90;99.90;;;;;;5052175;28;20461;-81
2022/02/15 02:25:44;;;;;;;5.30;1.45;;;5.90;99.90;;;;;;5051942;28;20040;-81
2022/02/15 02:28:10;;;;;;;5.72;1.30;;;5.90;99.90;;;;;;5052549;28;20036;-81
2022/02/15 02:30:37;;;;;;;2.20;0.98;;;5.90;99.90;;;;;;5051104;28;20033;-81
2022/02/15 02:33:03;;;;;;;3.03;1.00;;;5.80;99.90;;;;;;5052241;28;20115;-80
2022/02/15 02:35:29;;;;;;;2.78;1.10;;;5.80;99.90;;;;;;5052359;28;20060;-75
2022/02/15 02:37:54;;;;;;;4.00;1.15;;;5.80;99.90;;;;;;5050224;28;20067;-81
2022/02/15 02:40:20;;;;;;;2.95;1.50;;;5.70;99.90;;;;;;5051929;28;20036;-80
2022/02/15 02:42:46;;;;;;;1.98;1.10;;;5.70;99.90;;;;;;5049881;28;20025;-80
2022/02/15 02:45:17;;;;;;;2.50;0.70;;;5.60;99.90;;;;;;5051906;28;20386;-80
2022/02/15 02:47:44;;;;;;;1.73;0.90;;;5.70;99.90;;;;;;5051071;28;20116;-80
2022/02/15 02:50:11;;;;;;;2.15;1.00;;;5.60;99.90;;;;;;5052187;28;20152;-80
2022/02/15 02:52:37;;;;;;;1.65;0.90;;;5.60;99.90;;;;;;5050819;28;20029;-80
2022/02/15 02:55:03;;;;;;;4.15;0.90;;;5.50;99.90;;;;;;5051860;28;20075;-79
2022/02/15 02:57:28;;;;;;;1.90;1.13;;;5.50;99.90;;;;;;5051331;28;20049;-76
2022/02/15 02:59:54;;;;;;;3.63;1.20;;;5.50;99.90;;;;;;5051216;28;20032;-79
2022/02/15 03:02:20;;;;;;;3.20;1.30;;;5.50;99.90;;;;;;5051559;28;20462;-79
2022/02/15 03:04:45;;;;;;;2.78;1.17;;;5.50;99.90;;;;;;5051257;28;20029;-79
2022/02/15 03:07:11;;;;;;;4.13;1.10;;;5.50;99.90;;;;;;5051757;28;20091;-79
2022/02/15 03:09:37;;;;;;;2.13;1.00;;;5.40;99.90;;;;;;5050917;28;20068;-79
2022/02/15 03:12:04;;;;;;;4.05;1.00;;;5.40;99.90;;;;;;5051851;28;20025;-79
2022/02/15 03:14:29;;;;;;;3.10;1.00;;;5.40;99.90;;;;;;5051488;28;20418;-75
2022/02/15 03:16:55;;;;;;;4.88;1.13;;;5.40;99.90;;;;;;5051223;28;20087;-80
2022/02/15 03:19:21;;;;;;;2.38;1.10;;;5.50;99.90;;;;;;5051324;28;20437;-80
2022/02/15 03:21:47;;;;;;;2.97;1.00;;;5.50;99.90;;;;;;5050524;28;20025;-80
2022/02/15 03:24:13;;;;;;;1.02;0.70;;;5.50;99.90;;;;;;5050869;28;20079;-80
2022/02/15 03:26:38;;;;;;;1.17;0.77;;;5.60;99.90;;;;;;5051036;28;20503;-78
2022/02/15 03:29:05;;;;;;;4.85;1.30;;;5.50;99.90;;;;;;5051598;28;20437;-79
2022/02/15 03:31:31;;;;;;;3.30;1.10;;;5.50;99.90;;;;;;5051316;28;20032;-74
2022/02/15 03:33:56;;;;;;;3.40;1.13;;;5.60;99.90;;;;;;5050707;28;20573;-79
2022/02/15 03:36:23;;;;;;;3.85;1.35;;;5.70;99.90;;;;;;5051398;28;20108;-78
2022/02/15 03:38:49;;;;;;;2.20;1.08;;;5.70;99.90;;;;;;5050235;28;20037;-78
2022/02/15 03:43:58;;;;;;;3.53;0.95;;;5.80;99.90;;;;;;5051038;28;20096;-78
2022/02/15 03:46:24;;;;;;;3.85;1.05;;;5.90;99.90;;;;;;5051473;28;20029;-79
2022/02/15 03:48:51;;;;;;;3.30;0.95;;;5.90;99.90;;;;;;5050012;28;20075;-79
2022/02/15 03:51:18;;;;;;;3.67;1.13;;;5.90;99.90;;;;;;5055238;28;20079;-79
2022/02/15 03:53:43;;;;;;;2.65;1.05;;;5.90;99.90;;;;;;5054443;28;20445;-79
2022/02/15 03:56:10;;;;;;;2.42;1.05;;;6.00;99.90;;;;;;5054844;28;20036;-79
2022/02/15 03:58:36;;;;;;;7.72;1.10;;;6.00;99.90;;;;;;5053768;28;20103;-75
2022/02/15 04:01:03;;;;;;;2.25;0.80;;;6.10;99.90;;;;;;5054705;28;20052;-80
2022/02/15 04:03:28;;;;;;;2.50;1.48;;;6.10;99.90;;;;;;5054999;28;20025;-79
2022/02/15 04:05:54;;;;;;;2.78;1.27;;;6.10;99.90;;;;;;5054548;28;20033;-79
2022/02/15 04:08:22;;;;;;;5.05;0.90;;;6.20;99.90;;;;;;5054913;28;20488;-81
2022/02/15 04:10:48;;;;;;;4.65;1.10;;;6.20;99.90;;;;;;5054169;28;20480;-79
2022/02/15 04:13:14;;;;;;;3.25;0.85;;;6.20;99.90;;;;;;5054641;28;20037;-79
2022/02/15 04:15:40;;;;;;;3.25;0.80;;;6.20;99.90;;;;;;5053965;28;20492;-79
2022/02/15 04:18:06;;;;;;;3.15;1.10;;;6.30;99.90;;;;;;5054514;28;20033;-79
2022/02/15 04:20:31;;;;;;;3.00;1.00;;;6.30;99.90;;;;;;5055045;28;20029;-79
2022/02/15 04:22:57;;;;;;;4.93;1.20;;;6.30;99.90;;;;;;5053984;28;20486;-79
2022/02/15 04:25:23;;;;;;;7.65;0.90;;;6.40;99.90;;;;;;5054659;28;20032;-79
2022/02/15 04:27:48;;;;;;;2.70;1.10;;;6.40;99.90;;;;;;5054170;28;20486;-79
2022/02/15 04:30:14;;;;;;;1.65;0.88;;;6.40;99.90;;;;;;5054168;28;20041;-79
2022/02/15 04:32:40;;;;;;;4.25;0.90;;;6.40;99.90;;;;;;5053700;28;20029;-79
2022/02/15 04:35:06;;;;;;;3.70;1.27;;;6.40;99.90;;;;;;5054274;28;20079;-79
2022/02/15 04:37:32;;;;;;;2.78;1.10;;;6.50;99.90;;;;;;5054713;28;20036;-80
2022/02/15 04:39:58;;;;;;;6.35;1.27;;;6.50;99.90;;;;;;5053808;28;20458;-80
2022/02/15 04:42:24;;;;;;;7.40;1.38;;;6.40;99.90;;;;;;5054178;28;20091;-80
2022/02/15 04:44:49;;;;;;;3.47;1.30;;;6.40;99.90;;;;;;5053710;28;20028;-80
2022/02/15 04:47:15;;;;;;;2.47;1.10;;;6.40;99.90;;;;;;5053851;28;20171;-80
2022/02/15 04:49:41;;;;;;;2.17;1.25;;;6.40;99.90;;;;;;5053419;28;20068;-80
2022/02/15 04:52:07;;;;;;;6.40;1.63;;;6.30;99.90;;;;;;5054620;28;20481;-80
2022/02/15 04:54:33;;;;;;;8.07;1.48;;;6.40;99.90;;;;;;5054061;28;20553;-80
2022/02/15 04:56:58;;;;;;;4.63;1.67;;;6.30;99.90;;;;;;5053208;28;20045;-80
2022/02/15 04:59:24;;;;;;;4.53;1.67;;;6.30;99.90;;;;;;5054232;28;20102;-80
2022/02/15 05:01:50;;;;;;;1.70;1.10;;;6.30;99.90;;;;;;5052430;28;20095;-80
2022/02/15 05:07:01;;;;;;;7.18;1.67;;;6.30;99.90;;;;;;5053832;28;20517;-80
2022/02/15 05:09:28;;;;;;;2.45;1.48;;;6.30;99.90;;;;;;5053808;28;20033;-80
2022/02/15 05:11:54;;;;;;;4.78;1.70;;;6.20;99.90;;;;;;5052941;28;20784;-80
2022/02/15 05:14:20;;;;;;;5.30;1.73;;;6.30;99.90;;;;;;5053733;28;20072;-80
2022/02/15 05:16:46;;;;;;;5.03;1.48;;;6.30;99.90;;;;;;5053287;28;20120;-81
2022/02/15 05:19:12;;;;;;;3.95;2.20;;;6.30;99.90;;;;;;5053502;28;20517;-80
2022/02/15 05:21:38;;;;;;;2.38;1.42;;;6.30;99.90;;;;;;5053148;28;20128;-75
2022/02/15 05:24:05;;;;;;;3.55;1.70;;;6.30;99.90;;;;;;5053305;28;20048;-80
2022/02/15 05:26:31;;;;;;;2.40;1.48;;;6.40;99.90;;;;;;5052218;28;20025;-81
2022/02/15 05:28:56;;;;;;;2.42;1.45;;;6.30;99.90;;;;;;5051920;28;20190;-80
2022/02/15 05:31:22;;;;;;;4.43;2.00;;;6.30;99.90;;;;;;5052327;28;20025;-80
2022/02/15 05:33:47;;;;;;;2.17;1.42;;;6.30;99.90;;;;;;5051170;28;20432;-82
2022/02/15 05:36:13;;;;;;;2.63;1.40;;;6.30;99.90;;;;;;5052114;28;20475;-79
2022/02/15 05:38:39;;;;;;;3.13;1.15;;;6.30;99.90;;;;;;5051503;28;20377;-80
2022/02/15 05:41:05;;;;;;;3.90;1.55;;;6.30;99.90;;;;;;5052000;28;20108;-79
2022/02/15 05:43:31;;;;;;;3.70;1.83;;;6.30;99.90;;;;;;5051554;28;20041;-80
2022/02/15 05:45:56;;;;;;;2.58;1.38;;;6.20;99.90;;;;;;5051203;28;20028;-81
2022/02/15 05:48:22;;;;;;;3.15;1.35;;;6.20;99.90;;;;;;5051670;28;20025;-80
2022/02/15 05:50:50;;;;;;;2.55;1.08;;;6.20;99.90;;;;;;5050944;28;20044;-82
2022/02/15 05:53:21;;;;;;;1.52;0.88;;;6.20;99.90;;;;;;5051954;28;20028;-80
2022/02/15 05:55:48;;;;;;;;;;;6.20;99.90;;;;;;5051339;28;20029;-81
2022/02/15 05:58:15;;;;;;;2.67;1.08;;;6.20;99.90;;;;;;5051167;28;20078;-80
2022/02/15 06:00:41;;;;;;;4.13;1.23;;;6.20;99.90;;;;;;5048306;28;20474;-78
2022/02/15 06:04:09;;;;;;;2.22;1.17;;;6.20;99.90;;;;;;5051721;28;20025;-80
2022/02/15 06:05:53;;;;;;;5.57;1.25;;;6.20;99.90;;;;;;5049715;28;20021;-80
2022/02/15 06:08:19;;;;;;;2.47;1.23;;;6.20;99.90;;;;;;5051598;28;20021;-81
2022/02/15 06:10:46;;;;;;;2.42;1.50;;;6.30;99.90;;;;;;5050999;28;20025;-80
2022/02/15 06:13:12;;;;;;;3.05;1.20;;;6.20;99.90;;;;;;5048614;28;20151;-80
2022/02/15 06:15:38;;;;;;;3.65;1.50;;;6.30;99.90;;;;;;5050451;28;20079;-75
2022/02/15 06:18:04;;;;;;;2.40;1.48;;;6.30;99.90;;;;;;5052093;28;20032;-81
2022/02/15 06:20:29;;;;;;;1.38;1.23;;;6.30;99.90;;;;;;5050430;28;20540;-81
2022/02/15 06:22:55;;;;;;;2.45;1.40;;;6.30;99.90;;;;;;5052685;28;20033;-82
2022/02/15 06:25:21;;;;;;;2.35;1.00;;;6.30;99.90;;;;;;5052621;28;20059;-80
2022/02/15 06:27:46;;;;;;;2.15;1.15;;;6.30;99.90;;;;;;5050544;28;20426;-80
2022/02/15 06:30:12;;;;;;;2.85;1.42;;;6.30;99.90;;;;;;5052073;28;20116;-81
2022/02/15 06:32:38;;;;;;;2.92;1.17;;;6.30;99.90;;;;;;5052313;28;20021;-76
2022/02/15 06:35:04;;;;;;;3.40;1.15;;;6.40;99.90;;;;;;5052417;28;20033;-82
2022/02/15 06:37:30;;;;;;;3.53;1.40;;;6.40;99.90;;;;;;5052322;28;20057;-84
2022/02/15 06:39:56;;;;;;;4.43;1.60;;;6.40;99.90;;;;;;5051338;28;20622;-79
2022/02/15 06:42:21;;;;;;;4.63;1.60;;;6.50;99.90;;;;;;5051665;28;20029;-78
2022/02/15 06:44:47;;;;;;;3.78;1.60;;;6.50;99.90;;;;;;5049636;28;20382;-78
2022/02/15 06:47:13;;;;;;;3.08;1.50;;;6.50;99.90;;;;;;5052009;28;20036;-82
2022/02/15 06:49:38;;;;;;;2.70;1.40;;;6.50;99.90;;;;;;5050671;28;20044;-75
2022/02/15 06:52:04;;;;;;;2.13;1.40;;;6.50;99.90;;;;;;5050910;28;20025;-74
2022/02/15 06:54:30;;;;;;;2.55;1.33;;;6.50;99.90;;;;;;5051276;28;20115;-75
2022/02/15 06:56:56;;;;;;;5.13;1.35;;;6.50;99.90;;;;;;5049767;28;20222;-85
2022/02/15 06:59:21;;;;;;;2.67;1.42;;;6.50;99.90;;;;;;5051343;28;20029;-77
2022/02/15 07:01:47;;;;;;;2.70;1.15;;;6.50;99.90;;;;;;5050011;28;20032;-86
2022/02/15 07:04:13;;;;;;;4.13;1.58;;;6.50;99.90;;;;;;5051594;28;20036;-81
2022/02/15 07:06:39;;;;;;;1.30;1.08;;;6.50;99.90;;;;;;5050552;28;20104;-74
2022/02/15 07:09:05;;;;;;;2.20;1.00;;;6.50;99.90;;;;;;5050409;28;20032;-83
2022/02/15 07:11:31;;;;;;;3.30;1.02;;;6.60;99.90;;;;;;5050937;28;20514;-86
2022/02/15 07:13:56;;;;;;;4.45;1.65;;;6.50;99.90;;;;;;5050005;28;20861;-85
2022/02/15 07:16:22;;;;;;;1.95;1.27;;;6.50;99.90;;;;;;5050700;28;20109;-85
2022/02/15 07:18:48;;;;;;;2.53;1.27;;;6.50;99.90;;;;;;5049426;28;20021;-75
2022/02/15 07:21:15;;;;;;;3.03;1.20;;;6.40;99.90;;;;;;5049941;28;20113;-78
2022/02/15 07:23:41;;;;;;;2.53;1.00;;;6.40;99.90;;;;;;5049860;28;20053;-72
2022/02/15 07:26:06;;;;;;;1.17;1.05;;;6.40;99.90;;;;;;5046202;28;20063;-74
2022/02/15 07:28:32;;;;;;;3.05;1.33;;;6.40;99.90;;;;;;5046188;28;20140;-73
2022/02/15 07:30:58;;;;;;;2.78;1.73;;;6.30;99.90;;;;;;5046530;28;20079;-77
2022/02/15 07:33:24;;;;;;;4.40;1.33;;;6.30;99.90;;;;;;5051313;28;20525;-77
2022/02/15 07:35:50;;;;;;;2.30;1.23;;;6.30;99.90;;;;;;5050421;28;20098;-76
2022/02/15 07:38:15;;;;;;;5.05;1.42;;;6.30;99.90;;;;;;5050277;28;20025;-79
2022/02/15 07:40:41;;;;;;;2.90;1.10;;;6.40;99.90;;;;;;5049697;28;20056;-75
2022/02/15 07:43:08;;;;;;;1.65;1.02;;;6.40;99.90;;;;;;5050333;28;20032;-78
2022/02/15 07:45:33;;;;;;;3.33;1.35;;;6.50;99.90;;;;;;5049122;28;20079;-80
2022/02/15 07:47:59;;;;;;;3.10;1.10;;;6.60;99.90;;;;;;5049712;28;20095;-81
2022/02/15 07:50:25;;;;;;;1.95;0.90;;;6.60;99.90;;;;;;5050022;28;20041;-81
2022/02/15 07:52:53;;;;;;;3.13;1.40;;;6.60;99.90;;;;;;5049398;28;20025;-80
2022/02/15 07:55:19;;;;;;;2.08;1.00;;;6.60;99.90;;;;;;5049945;28;20025;-80
2022/02/15 07:57:44;;;;;;;2.15;1.00;;;6.60;99.90;;;;;;5049166;28;20060;-79
2022/02/15 08:00:18;;;;;;;2.85;1.00;;;6.60;99.90;;;;;;5049422;28;20112;-79
2022/02/15 08:02:44;;;;;;;1.30;0.68;;;6.60;99.90;;;;;;5049454;28;20031;-79
2022/02/15 08:05:10;;;;;;;3.17;0.85;;;6.60;99.90;;;;;;5049127;28;20474;-80
2022/02/15 08:07:37;;;;;;;3.35;1.33;;;6.60;99.90;;;;;;5049056;28;20055;-81
2022/02/15 08:10:04;;;;;;;1.80;1.10;;;6.70;99.90;;;;;;5049361;28;20768;-82
2022/02/15 08:12:30;;;;;;;2.53;1.40;;;6.70;99.90;;;;;;5050615;28;20029;-78
2022/02/15 08:14:55;;;;;;;5.15;1.00;;;6.70;99.90;;;;;;5048751;28;20040;-78
2022/02/15 08:17:22;;;;;;;2.90;1.15;;;6.80;99.90;;;;;;5050041;28;20473;-76
2022/02/15 08:19:48;;;;;;;8.98;1.90;;;6.80;99.90;;;;;;5049622;28;20040;-76
2022/02/15 08:22:14;;;;;;;4.63;1.10;;;6.90;99.90;;;;;;5050517;28;20029;-75
2022/02/15 08:24:40;;;;;;;2.03;1.33;;;6.90;99.90;;;;;;5049805;28;20094;-74
2022/02/15 08:27:05;;;;;;;4.85;1.40;;;7.00;99.90;;;;;;5050675;28;20029;-76
2022/02/15 08:29:31;;;;;;;1.15;0.95;;;6.90;99.90;;;;;;5050766;28;20106;-78
2022/02/15 08:31:58;;;;;;;3.47;0.80;;;7.00;99.90;;;;;;5049832;28;20416;-77
2022/02/15 08:34:24;;;;;;;1.88;0.90;;;7.00;99.90;;;;;;5050814;28;20024;-78
2022/02/15 08:36:50;;;;;;;1.00;0.70;;;7.00;99.90;;;;;;5051479;28;20458;-78
2022/02/15 08:39:16;;;;;;;2.25;1.20;;;7.10;99.90;;;;;;5054235;28;20545;-78
2022/02/15 08:41:42;;;;;;;3.85;1.17;;;7.10;99.90;;;;;;5053811;28;20029;-78
2022/02/15 08:44:08;;;;;;;2.05;0.88;;;7.20;99.90;;;;;;5054006;28;20469;-78
2022/02/15 08:46:34;;;;;;;4.63;0.80;;;7.20;99.90;;;;;;5054151;28;20064;-79
2022/02/15 08:48:59;;;;;;;1.75;1.15;;;7.40;99.90;;;;;;5053545;28;20036;-79
2022/02/15 08:51:25;;;;;;;4.57;1.00;;;7.40;99.90;;;;;;5054142;28;20543;-79
2022/02/15 08:53:51;;;;;;;1.90;0.93;;;7.50;99.90;;;;;;5053411;28;20354;-78
2022/02/15 08:56:18;;;;;;;0.88;0.57;;;7.60;99.90;;;;;;5053929;28;20338;-77
2022/02/15 08:58:44;;;;;;;4.00;0.90;;;7.60;99.90;;;;;;5053232;28;20135;-78
2022/02/15 09:01:10;;;;;;;2.22;0.80;;;7.60;99.90;;;;;;5053985;28;20100;-78
2022/02/15 09:03:36;;;;;;;2.55;1.00;;;7.70;99.90;;;;;;5053845;28;20032;-78
2022/02/15 09:06:02;;;;;;;1.88;0.60;;;7.70;99.90;;;;;;5053371;28;20032;-78
2022/02/15 09:08:28;;;;;;;3.67;0.70;;;7.80;99.90;;;;;;5053690;28;20025;-78
2022/02/15 09:10:54;;;;;;;2.45;0.90;;;7.80;99.90;;;;;;5053277;28;20048;-78
2022/02/15 09:13:20;;;;;;;1.67;0.80;;;7.70;99.90;;;;;;5052494;28;20025;-78
2022/02/15 09:15:45;;;;;;;1.60;0.80;;;7.70;99.90;;;;;;5053079;28;20304;-78
2022/02/15 09:18:11;;;;;;;2.47;0.93;;;7.80;99.90;;;;;;5053552;28;20104;-78
2022/02/15 09:20:38;;;;;;;5.15;0.73;;;8.00;99.90;;;;;;5053581;28;20037;-78
2022/02/15 09:23:05;;;;;;;1.67;0.57;;;8.10;99.90;;;;;;5052958;28;20123;-78
2022/02/15 09:25:31;;;;;;;2.70;0.77;;;8.10;99.90;;;;;;5052055;28;20075;-78
2022/02/15 09:27:58;;;;;;;1.40;0.75;;;8.10;99.90;;;;;;5052347;28;20029;-78
2022/02/15 09:30:24;;;;;;;1.55;0.82;;;8.00;99.90;;;;;;5053246;28;20037;-78
2022/02/15 09:32:50;;;;;;;1.33;0.68;;;8.00;99.90;;;;;;5052537;28;20033;-78
2022/02/15 09:35:16;;;;;;;3.03;1.10;;;7.80;99.90;;;;;;5053210;28;20029;-78
2022/02/15 09:37:42;;;;;;;1.70;0.85;;;7.80;99.90;;;;;;5052880;28;20100;-78
2022/02/15 09:40:09;;;;;;;1.45;1.00;;;7.90;99.90;;;;;;5052939;28;20110;-76
2022/02/15 09:42:36;;;;;;;2.95;0.80;;;8.00;99.90;;;;;;5053432;28;20033;-76
2022/02/15 09:45:04;;;;;;;3.50;1.00;;;8.00;99.90;;;;;;5052908;28;20242;-75
2022/02/15 09:47:33;;;;;;;4.55;1.15;;;8.10;99.90;;;;;;5052846;28;20028;-75
2022/02/15 09:50:01;;;;;;;1.52;0.93;;;8.20;99.90;;;;;;5052307;28;20098;-75
2022/02/15 09:52:27;;;;;;;3.78;1.58;;;8.20;99.90;;;;;;5052820;28;20080;-75
2022/02/15 09:54:55;;;;;;;1.92;1.33;;;8.40;99.90;;;;;;5050899;28;20393;-78
2022/02/15 09:57:24;;;;;;;2.65;1.15;;;8.50;99.90;;;;;;5052845;28;20044;-75
2022/02/15 09:59:51;;;;;;;1.73;1.15;;;8.70;99.90;;;;;;5052179;28;20364;-76
2022/02/15 10:02:29;;;;;;;2.15;1.15;;;8.80;99.90;;;;;;5052830;28;20033;-75
2022/02/15 10:04:57;;;;;;;2.67;1.10;;;9.00;99.90;;;;;;5052047;28;20413;-76
2022/02/15 10:07:24;;;;;;;2.03;1.17;;;9.20;99.90;;;;;;5052644;28;20067;-75
2022/02/15 10:09:51;;;;;;;3.30;1.23;;;9.40;99.90;;;;;;5051888;28;20029;-75
2022/02/15 10:12:19;;;;;;;3.85;1.30;;;9.40;99.90;;;;;;5052566;28;20033;-75
2022/02/15 10:14:47;;;;;;;1.50;1.05;;;9.50;99.90;;;;;;5051766;28;20025;-76
2022/02/15 10:17:16;;;;;;;4.43;1.13;;;9.50;99.90;;;;;;5052263;28;20032;-76
2022/02/15 10:19:44;;;;;;;2.00;1.10;;;9.60;99.90;;;;;;5052532;28;20519;-76
2022/02/15 10:22:11;;;;;;;2.05;1.15;;;9.70;99.90;;;;;;5052682;28;20029;-76
2022/02/15 10:24:38;;;;;;;4.15;1.27;;;9.80;99.90;;;;;;5052346;28;20035;-76
2022/02/15 10:27:04;;;;;;;2.78;1.25;;;9.70;99.90;;;;;;5051479;28;20385;-77
2022/02/15 10:29:33;;;;;;;6.00;1.13;;;9.70;99.60;;;;;;5052120;28;20108;-75
2022/02/15 10:32:00;;;;;;;2.33;0.95;;;9.70;99.50;;;;;;5051772;28;20029;-75
2022/02/15 10:34:27;;;;;;;5.82;1.20;;;9.60;99.90;;;;;;5051752;28;20470;-76
2022/02/15 10:37:01;;;;;;;3.95;1.10;;;9.50;99.90;;;;;;5051512;28;20021;-76
2022/02/15 10:40:13;;;;;;;3.85;0.88;;;9.40;99.90;;;;;;5052040;28;20386;-76
2022/02/15 10:42:39;;;;;;;3.10;0.90;;;9.20;97.70;;;;;;5046109;28;20131;-76
2022/02/15 10:45:08;;;;;;;1.38;0.75;;;8.90;98.10;;;;;;5051159;28;20509;-76
2022/02/15 10:47:36;;;;;;;2.38;0.95;;;8.80;99.50;;;;;;5051768;28;20452;-76
2022/02/15 10:50:13;;;;;;;2.08;1.05;;;8.70;99.90;;;;;;5050993;28;20132;-76
2022/02/15 10:52:39;;;;;;;5.95;0.88;;;8.70;99.90;;;;;;5051606;28;20036;-76
2022/02/15 10:55:06;;;;;;;5.80;1.00;;;8.80;99.60;;;;;;5051165;28;20419;-76
2022/02/15 10:57:32;;;;;;;8.70;1.02;;;8.80;99.40;;;;;;5051403;28;20154;-76
2022/02/15 11:00:01;;;;;;;4.10;0.95;;;8.70;99.80;;;;;;5050403;28;20382;-76
2022/02/15 11:02:30;;;;;;;9.50;1.17;;;8.70;99.90;;;;;;5052345;28;20028;-76
2022/02/15 11:05:00;;;;;;;3.00;0.90;;;8.80;99.90;;;;;;5050961;28;20097;-76
2022/02/15 11:07:29;;;;;;;3.08;1.00;;;8.80;99.90;;;;;;5051783;28;20462;-76
2022/02/15 11:10:22;;;;;;;2.63;0.90;;;8.80;99.90;;;;;;5050795;28;20029;-76
2022/02/15 11:12:59;;;;;;;3.13;0.73;;;8.70;99.90;;;;;;5051204;28;20033;-75
2022/02/15 11:15:28;;;;;;;3.85;0.90;;;8.60;99.90;;;;;;5051497;28;20111;-76
2022/02/15 11:18:00;;;;;;;2.08;0.98;;;8.50;99.90;;;;;;5051223;28;20103;-76
2022/02/15 11:20:29;;;;;;;3.20;0.70;;;8.40;99.90;;;;;;5051133;28;20073;-77
2022/02/15 11:23:00;;;;;;;2.25;0.80;;;8.50;99.90;;;;;;5051309;28;20021;-77
2022/02/15 11:25:30;;;;;;;5.30;0.80;;;8.40;99.90;;;;;;5051640;28;20075;-77
2022/02/15 11:27:55;;;;;;;4.13;0.90;;;8.40;99.90;;;;;;5050860;28;20029;-77
2022/02/15 11:30:23;;;;;;;3.15;0.80;;;8.40;99.70;;;;;;5051329;28;20104;-76
2022/02/15 11:32:54;;;;;;;2.53;1.00;;;8.40;99.90;;;;;;5050961;28;20075;-75
2022/02/15 11:35:19;;;;;;;2.75;1.25;;;8.40;99.90;;;;;;5051420;28;20112;-76
2022/02/15 11:37:45;;;;;;;1.77;0.70;;;8.40;99.90;;;;;;5050353;28;20468;-76
2022/02/15 11:40:13;;;;;;;2.42;0.88;;;8.40;99.60;;;;;;5050653;28;20108;-76
2022/02/15 11:42:49;;;;;;;3.70;0.70;;;8.40;99.90;;;;;;5051451;28;20029;-76
2022/02/15 11:45:29;;;;;;;3.35;0.88;;;8.40;99.60;;;;;;5051408;28;20025;-77
2022/02/15 11:48:07;;;;;;;1.48;0.70;;;8.40;99.60;;;;;;5050887;28;20044;-77
2022/02/15 11:50:47;;;;;;;2.15;0.60;;;8.40;99.90;;;;;;5051111;28;20056;-77
2022/02/15 11:53:16;;;;;;;2.05;0.77;;;8.40;98.60;;;;;;5051126;28;20036;-76
2022/02/15 11:55:43;;;;;;;1.42;0.70;;;8.50;97.80;;;;;;5050906;28;20485;-76
2022/02/15 11:58:09;;;;;;;1.48;1.02;;;8.50;97.50;;;;;;5050943;28;20049;-76
2022/02/15 12:00:37;;;;;;;0.65;0.57;;;8.50;96.50;;;;;;5051827;28;20056;-76
2022/02/15 12:03:03;;;;;;;0.80;0.40;;;8.50;94.60;;;;;;5051278;28;20017;-76
2022/02/15 12:05:31;;;;;;;1.02;0.80;;;8.60;94.00;;;;;;5051566;28;20029;-76
2022/02/15 12:07:57;;;;;;;2.45;0.70;;;8.60;94.00;;;;;;5051054;28;20040;-76
2022/02/15 12:10:27;;;;;;;1.92;0.77;;;8.60;94.80;;;;;;5052062;28;20072;-76
2022/02/15 12:12:52;;;;;;;2.30;0.80;;;8.70;95.20;;;;;;5054932;28;20411;-77
2022/02/15 12:15:18;;;;;;;1.92;0.90;;;8.80;95.30;;;;;;5055442;28;20071;-77
2022/02/15 12:17:46;;;;;;;1.30;0.88;;;9.00;95.00;;;;;;5055246;28;20440;-77
2022/02/15 12:20:17;;;;;;;1.73;1.15;;;8.90;94.90;;;;;;5054906;28;20037;-77
2022/02/15 12:22:52;;;;;;;3.92;1.00;;;8.90;95.60;;;;;;5055406;28;20048;-77
2022/02/15 12:25:18;;;;;;;1.90;1.08;;;9.00;95.40;;;;;;5055479;28;20028;-77
2022/02/15 12:27:46;;;;;;;5.97;1.20;;;9.00;95.40;;;;;;5055309;28;20036;-76
2022/02/15 12:30:14;;;;;;;2.67;0.80;;;9.10;95.70;;;;;;5054715;28;20024;-77
2022/02/15 12:32:43;;;;;;;3.13;1.00;;;9.30;95.00;;;;;;5055248;28;20033;-77
2022/02/15 12:35:09;;;;;;;3.25;0.90;;;9.40;94.80;;;;;;5054284;28;20430;-77
2022/02/15 12:37:35;;;;;;;2.47;1.10;;;9.40;94.80;;;;;;5055776;28;20040;-77
2022/02/15 12:40:03;;;;;;;3.38;1.40;;;9.30;95.40;;;;;;5055903;28;20025;-76
2022/02/15 12:42:29;;;;;;;2.88;1.25;;;9.30;95.20;;;;;;5057136;28;20159;-77
2022/02/15 12:44:59;;;;;;;2.85;0.95;;;9.20;94.60;;;;;;5054117;28;20485;-76
2022/02/15 12:47:27;;;;;;;4.75;1.20;;;9.10;95.10;;;;;;5054678;28;20033;-77
2022/02/15 12:49:53;;;;;;;1.90;1.20;;;8.90;95.90;;;;;;5054164;28;20044;-77
2022/02/15 12:52:21;;;;;;;2.88;1.10;;;8.90;96.60;;;;;;5054279;28;20029;-77
2022/02/15 12:54:55;;;;;;;3.25;1.20;;;8.90;96.90;;;;;;5054693;28;20078;-77
2022/02/15 12:57:23;;;;;;;4.35;1.45;;;8.90;97.30;;;;;;5054244;28;20490;-77
2022/02/15 13:00:09;;;;;;;4.28;1.83;;;9.00;97.80;;;;;;5054564;28;20044;-76
2022/02/15 13:02:35;;;;;;;2.08;1.17;;;9.20;97.40;;;;;;5054791;28;20363;-76